createdAt,value
2019-03-16T00:01:57.435Z,7.02
2019-03-16T00:04:23.584Z,6.99
2019-03-16T00:06:52.060Z,7.01
2019-03-16T00:09:20.561Z,6.99
2019-03-16T00:11:49.058Z,6.98
2019-03-16T00:14:17.526Z,6.97
2019-03-16T00:16:46.007Z,6.95
2019-03-16T00:19:14.534Z,6.95
2019-03-16T00:21:43.121Z,6.91
2019-03-16T00:24:11.577Z,6.91
2019-03-16T00:26:40.035Z,6.86
2019-03-16T00:29:08.533Z,6.81
2019-03-16T00:31:36.986Z,6.83
2019-03-16T00:34:07.134Z,6.79
2019-03-16T00:36:35.608Z,6.78
2019-03-16T00:39:05.945Z,6.76
2019-03-16T00:41:34.418Z,6.75
2019-03-16T00:44:02.902Z,6.72
2019-03-16T00:46:31.452Z,6.72
2019-03-16T00:48:59.943Z,6.73
2019-03-16T00:51:28.404Z,6.71
2019-03-16T00:53:56.886Z,6.64
2019-03-16T00:56:25.364Z,6.66
2019-03-16T00:58:53.850Z,6.66
2019-03-16T01:01:22.318Z,6.61
2019-03-16T01:03:50.888Z,6.60
2019-03-16T01:06:19.348Z,6.61
2019-03-16T01:08:47.847Z,6.62
2019-03-16T01:11:16.310Z,6.51
2019-03-16T01:13:44.809Z,6.52
2019-03-16T01:16:13.289Z,6.55
2019-03-16T01:18:42.014Z,6.60
2019-03-16T01:21:10.491Z,6.58
2019-03-16T01:23:38.973Z,6.58
2019-03-16T01:26:07.550Z,6.59
2019-03-16T01:28:36.015Z,6.59
2019-03-16T01:31:04.518Z,6.60
2019-03-16T01:33:33.008Z,6.57
2019-03-16T01:36:01.526Z,6.50
2019-03-16T01:38:29.994Z,6.54
2019-03-16T01:40:58.501Z,6.54
2019-03-16T01:43:26.980Z,6.51
2019-03-16T01:45:55.504Z,6.54
2019-03-16T01:48:23.986Z,6.53
2019-03-16T01:50:52.505Z,6.53
2019-03-16T01:53:22.853Z,6.50
2019-03-16T01:55:51.354Z,6.52
2019-03-16T01:58:19.821Z,6.53
2019-03-16T02:00:48.335Z,6.54
2019-03-16T02:03:16.817Z,6.47
2019-03-16T02:05:45.326Z,6.51
2019-03-16T02:08:13.790Z,6.53
2019-03-16T02:10:42.288Z,6.51
2019-03-16T02:13:10.746Z,6.49
2019-03-16T02:15:39.328Z,6.47
2019-03-16T02:18:07.802Z,6.49
2019-03-16T02:20:36.281Z,6.47
2019-03-16T02:23:04.820Z,6.45
2019-03-16T02:25:33.343Z,6.45
2019-03-16T02:28:01.802Z,6.45
2019-03-16T02:30:30.304Z,6.45
2019-03-16T02:33:11.637Z,6.45
2019-03-16T02:35:29.006Z,6.46
2019-03-16T02:37:57.590Z,6.43
2019-03-16T02:40:26.055Z,6.39
2019-03-16T02:42:54.513Z,6.39
2019-03-16T02:45:23.076Z,6.37
2019-03-16T02:47:51.571Z,6.38
2019-03-16T02:50:20.032Z,6.34
2019-03-16T02:52:49.997Z,6.36
2019-03-16T02:55:18.869Z,6.37
2019-03-16T02:57:47.359Z,6.36
2019-03-16T03:00:16.029Z,6.36
2019-03-16T03:02:44.528Z,6.39
2019-03-16T03:05:13.150Z,6.38
2019-03-16T03:07:41.665Z,6.41
2019-03-16T03:10:12.513Z,6.38
2019-03-16T03:12:41.021Z,6.41
2019-03-16T03:15:10.228Z,6.38
2019-03-16T03:17:38.709Z,6.38
2019-03-16T03:20:09.435Z,6.37
2019-03-16T03:22:37.911Z,6.32
2019-03-16T03:25:06.772Z,6.32
2019-03-16T03:27:35.285Z,6.35
2019-03-16T03:30:05.241Z,6.30
2019-03-16T03:32:33.707Z,6.26
2019-03-16T03:35:02.166Z,6.34
2019-03-16T03:37:30.654Z,6.33
2019-03-16T03:39:59.113Z,6.34
2019-03-16T03:42:27.619Z,6.36
2019-03-16T03:44:56.521Z,6.35
2019-03-16T03:47:25.023Z,6.30
2019-03-16T03:49:53.469Z,6.31
2019-03-16T03:52:21.947Z,6.34
2019-03-16T03:54:50.491Z,6.33
2019-03-16T03:57:18.980Z,6.31
2019-03-16T03:59:47.685Z,6.28
2019-03-16T04:02:16.278Z,6.29
2019-03-16T04:04:44.760Z,6.33
2019-03-16T04:07:13.246Z,6.30
2019-03-16T04:09:41.722Z,6.29
2019-03-16T04:12:10.255Z,6.30
2019-03-16T04:14:38.681Z,6.28
2019-03-16T04:17:07.273Z,6.25
2019-03-16T04:19:35.753Z,6.24
2019-03-16T04:22:04.232Z,6.23
2019-03-16T04:24:32.715Z,6.23
2019-03-16T04:27:15.261Z,6.16
2019-03-16T04:29:31.556Z,6.17
2019-03-16T04:32:00.092Z,6.16
2019-03-16T04:34:29.902Z,6.11
2019-03-16T04:36:58.538Z,6.08
2019-03-16T04:39:27.041Z,6.08
2019-03-16T04:41:55.525Z,6.07
2019-03-16T04:44:24.015Z,6.11
2019-03-16T04:46:52.488Z,6.07
2019-03-16T04:49:20.994Z,6.12
2019-03-16T04:51:49.477Z,6.09
2019-03-16T04:54:17.993Z,6.05
2019-03-16T04:56:46.477Z,6.06
2019-03-16T04:59:14.946Z,6.05
2019-03-16T05:01:43.421Z,6.05
2019-03-16T05:04:11.912Z,6.03
2019-03-16T05:06:40.438Z,6.07
2019-03-16T05:09:08.905Z,6.08
2019-03-16T05:11:37.446Z,6.04
2019-03-16T05:14:05.951Z,6.02
2019-03-16T05:16:34.423Z,6.06
2019-03-16T05:19:02.938Z,6.05
2019-03-16T05:21:31.372Z,6.05
2019-03-16T05:24:02.770Z,6.05
2019-03-16T05:26:30.076Z,6.06
2019-03-16T05:28:58.616Z,6.08
2019-03-16T05:31:27.085Z,6.03
2019-03-16T05:33:55.583Z,6.08
2019-03-16T05:36:24.062Z,6.08
2019-03-16T05:38:52.561Z,6.10
2019-03-16T05:41:21.113Z,6.08
2019-03-16T05:43:49.611Z,6.04
2019-03-16T05:46:18.113Z,6.07
2019-03-16T05:48:46.603Z,6.09
2019-03-16T05:51:15.068Z,6.12
2019-03-16T05:53:43.574Z,6.15
2019-03-16T05:56:12.053Z,6.16
2019-03-16T05:58:40.546Z,6.21
2019-03-16T06:01:09.014Z,6.22
2019-03-16T06:03:37.521Z,6.20
2019-03-16T06:06:06.071Z,6.28
2019-03-16T06:08:34.564Z,6.29
2019-03-16T06:11:03.053Z,6.37
2019-03-16T06:13:31.552Z,6.45
2019-03-16T06:16:00.034Z,6.48
2019-03-16T06:18:28.537Z,6.56
2019-03-16T06:20:56.996Z,6.63
2019-03-16T06:23:25.468Z,6.70
2019-03-16T06:25:53.957Z,6.80
2019-03-16T06:28:22.500Z,6.87
2019-03-16T06:30:50.983Z,6.96
2019-03-16T06:33:19.482Z,6.90
2019-03-16T06:35:47.994Z,6.97
2019-03-16T06:38:16.473Z,7.04
2019-03-16T06:40:44.983Z,7.03
2019-03-16T06:43:13.471Z,7.13
2019-03-16T06:45:41.945Z,7.22
2019-03-16T06:48:10.431Z,7.27
2019-03-16T06:50:38.933Z,7.28
2019-03-16T06:53:07.391Z,7.37
2019-03-16T06:55:35.906Z,7.40
2019-03-16T06:58:04.452Z,7.44
2019-03-16T07:00:32.956Z,7.42
2019-03-16T07:03:01.436Z,7.54
2019-03-16T07:05:38.188Z,7.56
2019-03-16T07:08:00.245Z,7.73
2019-03-16T07:10:28.741Z,7.82
2019-03-16T07:12:57.204Z,7.87
2019-03-16T07:15:25.699Z,7.93
2019-03-16T07:17:54.183Z,8.06
2019-03-16T07:20:22.692Z,8.19
2019-03-16T07:22:51.163Z,8.19
2019-03-16T07:25:19.669Z,8.22
2019-03-16T07:27:48.154Z,8.37
2019-03-16T07:30:16.727Z,8.31
2019-03-16T07:32:45.212Z,8.40
2019-03-16T07:35:13.807Z,8.39
2019-03-16T07:37:42.373Z,8.39
2019-03-16T07:40:14.563Z,8.46
2019-03-16T07:42:43.035Z,8.62
2019-03-16T07:45:12.998Z,8.88
2019-03-16T07:47:41.538Z,8.94
2019-03-16T07:50:11.960Z,9.01
2019-03-16T07:52:40.542Z,9.18
2019-03-16T07:55:09.488Z,9.15
2019-03-16T07:57:40.601Z,9.22
2019-03-16T08:00:12.437Z,9.14
2019-03-16T08:02:40.912Z,9.39
2019-03-16T08:05:18.067Z,9.51
2019-03-16T08:07:39.909Z,9.46
2019-03-16T08:10:11.959Z,9.67
2019-03-16T08:12:40.504Z,9.80
2019-03-16T08:15:10.297Z,9.89
2019-03-16T08:17:38.956Z,10.02
2019-03-16T08:20:08.888Z,10.11
2019-03-16T08:22:37.368Z,10.13
2019-03-16T08:25:07.136Z,9.90
2019-03-16T08:27:35.703Z,9.85
2019-03-16T08:30:09.122Z,10.02
2019-03-16T08:32:37.703Z,10.07
2019-03-16T08:35:07.764Z,9.79
2019-03-16T08:37:36.228Z,9.78
2019-03-16T08:40:07.081Z,9.94
2019-03-16T08:42:35.556Z,10.06
2019-03-16T08:45:08.914Z,9.83
2019-03-16T08:47:37.383Z,9.91
2019-03-16T08:50:07.636Z,9.87
2019-03-16T08:52:36.129Z,10.03
2019-03-16T08:55:05.609Z,9.92
2019-03-16T08:57:34.029Z,9.84
2019-03-16T09:00:02.702Z,9.98
2019-03-16T09:02:31.169Z,10.21
2019-03-16T09:04:59.760Z,10.01
2019-03-16T09:07:28.248Z,10.12
2019-03-16T09:09:56.786Z,10.28
2019-03-16T09:12:25.268Z,10.20
2019-03-16T09:14:53.765Z,10.21
2019-03-16T09:17:22.248Z,10.43
2019-03-16T09:19:50.754Z,10.08
2019-03-16T09:22:19.341Z,10.22
2019-03-16T09:24:47.813Z,10.34
2019-03-16T09:27:16.333Z,10.48
2019-03-16T09:29:44.824Z,10.50
2019-03-16T09:32:13.343Z,10.58
2019-03-16T09:34:41.825Z,10.70
2019-03-16T09:37:10.319Z,10.65
2019-03-16T09:39:38.802Z,10.78
2019-03-16T09:42:07.302Z,10.75
2019-03-16T09:44:35.786Z,10.68
2019-03-16T09:47:04.454Z,10.76
2019-03-16T09:49:32.934Z,10.87
2019-03-16T09:52:01.455Z,10.91
2019-03-16T09:54:29.923Z,10.73
2019-03-16T09:57:01.660Z,10.70
2019-03-16T09:59:28.636Z,10.77
2019-03-16T10:01:57.146Z,10.97
2019-03-16T10:04:25.636Z,11.24
2019-03-16T10:06:54.113Z,11.10
2019-03-16T10:09:22.597Z,11.16
2019-03-16T10:11:51.100Z,11.43
2019-03-16T10:14:19.943Z,11.40
2019-03-16T10:16:48.470Z,11.48
2019-03-16T10:19:16.956Z,11.42
2019-03-16T10:21:45.449Z,11.88
2019-03-16T10:24:13.932Z,11.52
2019-03-16T10:26:42.447Z,11.52
2019-03-16T10:29:10.916Z,11.58
2019-03-16T10:31:39.408Z,11.58
2019-03-16T10:34:07.892Z,11.79
2019-03-16T10:36:36.388Z,12.04
2019-03-16T10:39:06.934Z,12.07
2019-03-16T10:41:35.457Z,11.79
2019-03-16T10:44:04.029Z,11.86
2019-03-16T10:46:32.517Z,11.77
2019-03-16T10:49:00.999Z,11.64
2019-03-16T10:51:29.479Z,11.74
2019-03-16T10:53:57.958Z,11.72
2019-03-16T10:56:26.471Z,11.68
2019-03-16T10:58:56.879Z,11.43
2019-03-16T11:01:25.144Z,11.41
2019-03-16T11:03:53.646Z,11.21
2019-03-16T11:06:22.114Z,11.02
2019-03-16T11:08:50.597Z,11.29
2019-03-16T11:11:19.082Z,11.06
2019-03-16T11:13:47.600Z,11.02
2019-03-16T11:16:16.144Z,10.82
2019-03-16T11:18:44.663Z,10.75
2019-03-16T11:21:13.133Z,10.70
2019-03-16T11:23:41.628Z,10.55
2019-03-16T11:26:10.119Z,10.17
2019-03-16T11:28:38.598Z,10.02
2019-03-16T11:31:07.077Z,9.81
2019-03-16T11:33:35.576Z,9.72
2019-03-16T11:36:04.313Z,9.75
2019-03-16T11:38:32.829Z,9.78
2019-03-16T11:41:01.302Z,9.80
2019-03-16T11:43:29.784Z,9.66
2019-03-16T11:45:58.269Z,9.56
2019-03-16T11:48:26.745Z,9.52
2019-03-16T11:50:55.227Z,9.44
2019-03-16T11:53:23.715Z,9.17
2019-03-16T11:55:54.582Z,9.19
2019-03-16T11:58:23.181Z,9.03
2019-03-16T12:00:51.652Z,8.95
2019-03-16T12:03:20.132Z,9.02
2019-03-16T12:05:48.604Z,8.99
2019-03-16T12:08:17.114Z,8.92
2019-03-16T12:10:45.573Z,8.72
2019-03-16T12:13:18.123Z,8.81
2019-03-16T12:15:44.331Z,8.71
2019-03-16T12:18:12.828Z,8.72
2019-03-16T12:20:41.392Z,8.69
2019-03-16T12:23:09.875Z,8.63
2019-03-16T12:25:38.376Z,8.61
2019-03-16T12:28:06.854Z,8.62
2019-03-16T12:30:35.378Z,8.57
2019-03-16T12:33:03.846Z,8.53
2019-03-16T12:35:32.351Z,8.26
2019-03-16T12:38:00.852Z,8.29
2019-03-16T12:40:29.313Z,8.30
2019-03-16T12:42:57.820Z,8.34
2019-03-16T12:45:26.307Z,8.00
2019-03-16T12:47:54.783Z,8.02
2019-03-16T12:50:23.286Z,8.18
2019-03-16T12:52:51.752Z,8.07
2019-03-16T12:55:20.304Z,7.95
2019-03-16T12:57:49.711Z,7.97
2019-03-16T13:00:19.439Z,7.79
2019-03-16T13:02:48.010Z,7.96
2019-03-16T13:05:16.525Z,7.88
2019-03-16T13:07:45.002Z,7.96
2019-03-16T13:10:20.204Z,8.00
2019-03-16T13:12:48.743Z,8.04
2019-03-16T13:15:19.023Z,7.97
2019-03-16T13:17:47.483Z,7.87
2019-03-16T13:20:17.015Z,7.84
2019-03-16T13:22:45.472Z,7.89
2019-03-16T13:25:14.308Z,7.71
2019-03-16T13:27:42.778Z,7.81
2019-03-16T13:30:15.585Z,7.70
2019-03-16T13:32:44.065Z,7.79
2019-03-16T13:35:12.913Z,7.67
2019-03-16T13:37:41.404Z,7.65
2019-03-16T13:40:14.246Z,7.57
2019-03-16T13:42:42.773Z,7.39
2019-03-16T13:45:11.633Z,7.40
2019-03-16T13:47:40.078Z,7.56
2019-03-16T13:50:11.479Z,7.49
2019-03-16T13:52:40.167Z,7.29
2019-03-16T13:55:09.419Z,7.41
2019-03-16T13:57:37.901Z,7.34
2019-03-16T14:00:12.245Z,7.30
2019-03-16T14:02:39.812Z,7.37
2019-03-16T14:05:08.358Z,7.30
2019-03-16T14:07:37.129Z,7.32
2019-03-16T14:10:08.663Z,7.15
2019-03-16T14:12:37.152Z,7.33
2019-03-16T14:15:07.081Z,7.21
2019-03-16T14:17:35.817Z,7.16
2019-03-16T14:20:05.557Z,7.10
2019-03-16T14:22:34.025Z,7.12
2019-03-16T14:25:02.521Z,7.18
2019-03-16T14:27:30.979Z,7.13
2019-03-16T14:29:59.434Z,7.09
2019-03-16T14:32:27.939Z,7.13
2019-03-16T14:34:56.396Z,6.99
2019-03-16T14:37:25.263Z,7.06
2019-03-16T14:39:54.030Z,6.93
2019-03-16T14:42:22.495Z,7.09
2019-03-16T14:44:50.962Z,6.93
2019-03-16T14:47:19.461Z,6.56
2019-03-16T14:49:47.921Z,6.67
2019-03-16T14:52:16.409Z,6.80
2019-03-16T14:54:44.863Z,6.76
2019-03-16T14:57:13.362Z,6.76
2019-03-16T14:59:41.880Z,6.59
2019-03-16T15:02:10.429Z,6.51
2019-03-16T15:04:38.942Z,6.56
2019-03-16T15:07:07.422Z,6.53
2019-03-16T15:09:35.908Z,6.40
2019-03-16T15:12:04.403Z,6.35
2019-03-16T15:14:32.881Z,6.30
2019-03-16T15:17:01.400Z,6.37
2019-03-16T15:19:29.874Z,6.46
2019-03-16T15:21:58.377Z,6.50
2019-03-16T15:24:26.866Z,6.36
2019-03-16T15:26:55.353Z,6.27
2019-03-16T15:29:23.835Z,6.31
2019-03-16T15:31:52.312Z,6.27
2019-03-16T15:34:20.774Z,6.14
2019-03-16T15:36:49.280Z,6.20
2019-03-16T15:39:17.947Z,6.16
2019-03-16T15:41:46.398Z,6.13
2019-03-16T15:44:14.904Z,6.21
2019-03-16T15:46:43.498Z,6.24
2019-03-16T15:49:12.006Z,6.13
2019-03-16T15:51:40.471Z,6.17
2019-03-16T15:54:08.935Z,6.14
2019-03-16T15:56:37.714Z,6.26
2019-03-16T15:59:06.186Z,6.24
2019-03-16T16:01:34.688Z,6.26
2019-03-16T16:04:03.262Z,6.24
2019-03-16T16:06:31.746Z,6.30
2019-03-16T16:09:00.229Z,6.32
2019-03-16T16:11:28.715Z,6.34
2019-03-16T16:13:57.193Z,6.35
2019-03-16T16:16:25.667Z,6.36
2019-03-16T16:18:54.200Z,6.41
2019-03-16T16:21:22.643Z,6.48
2019-03-16T16:23:51.129Z,6.49
2019-03-16T16:26:19.599Z,6.51
2019-03-16T16:28:48.162Z,6.39
2019-03-16T16:31:16.850Z,6.43
2019-03-16T16:33:45.495Z,6.44
2019-03-16T16:36:14.030Z,6.45
2019-03-16T16:38:42.512Z,6.47
2019-03-16T16:41:10.997Z,6.48
2019-03-16T16:43:39.488Z,6.51
2019-03-16T16:46:07.969Z,6.60
2019-03-16T16:48:36.471Z,6.62
2019-03-16T16:51:05.096Z,6.62
2019-03-16T16:53:33.664Z,6.64
2019-03-16T16:56:02.166Z,6.63
2019-03-16T16:58:30.671Z,6.60
2019-03-16T17:00:59.144Z,6.66
2019-03-16T17:03:27.647Z,6.72
2019-03-16T17:05:56.187Z,6.71
2019-03-16T17:08:24.689Z,6.71
2019-03-16T17:10:53.175Z,6.70
2019-03-16T17:13:21.665Z,6.74
2019-03-16T17:15:50.137Z,6.77
2019-03-16T17:18:18.664Z,6.78
2019-03-16T17:20:47.152Z,6.83
2019-03-16T17:23:15.600Z,6.86
2019-03-16T17:25:44.060Z,6.89
2019-03-16T17:28:12.570Z,6.92
2019-03-16T17:30:41.008Z,6.92
2019-03-16T17:33:09.507Z,6.92
2019-03-16T17:35:38.072Z,6.94
2019-03-16T17:38:06.554Z,6.99
2019-03-16T17:40:35.002Z,7.00
2019-03-16T17:43:03.515Z,7.01
2019-03-16T17:45:32.018Z,7.05
2019-03-16T17:48:00.495Z,7.08
2019-03-16T17:50:29.094Z,7.12
2019-03-16T17:52:57.596Z,7.14
2019-03-16T17:55:26.077Z,7.16
2019-03-16T17:57:54.602Z,7.17
2019-03-16T18:00:23.078Z,7.22
2019-03-16T18:02:52.696Z,7.25
2019-03-16T18:05:21.383Z,7.27
2019-03-16T18:07:49.915Z,7.33
2019-03-16T18:10:18.443Z,7.27
2019-03-16T18:12:46.931Z,7.35
2019-03-16T18:15:20.110Z,7.38
2019-03-16T18:17:48.682Z,7.41
2019-03-16T18:20:18.344Z,7.43
2019-03-16T18:22:47.668Z,7.44
2019-03-16T18:25:16.770Z,7.50
2019-03-16T18:27:45.262Z,7.50
2019-03-16T18:30:20.944Z,7.53
2019-03-16T18:32:49.423Z,7.55
2019-03-16T18:35:17.933Z,7.58
2019-03-16T18:37:46.413Z,7.63
2019-03-16T18:40:16.060Z,7.65
2019-03-16T18:42:44.531Z,7.66
2019-03-16T18:45:36.481Z,7.72
2019-03-16T18:48:04.988Z,7.75
2019-03-16T18:50:33.507Z,7.81
2019-03-16T18:53:01.990Z,7.83
2019-03-16T18:55:30.476Z,7.85
2019-03-16T18:57:58.989Z,7.97
2019-03-16T19:00:27.482Z,8.00
2019-03-16T19:02:56.233Z,8.04
2019-03-16T19:05:24.743Z,8.12
2019-03-16T19:07:53.214Z,8.13
2019-03-16T19:10:21.713Z,8.13
2019-03-16T19:12:50.188Z,8.14
2019-03-16T19:15:19.521Z,8.15
2019-03-16T19:17:58.255Z,8.19
2019-03-16T19:20:18.652Z,8.21
2019-03-16T19:22:47.269Z,8.24
2019-03-16T19:25:19.027Z,8.26
2019-03-16T19:27:48.784Z,8.36
2019-03-16T19:30:18.124Z,8.40
2019-03-16T19:32:46.838Z,8.42
2019-03-16T19:35:15.614Z,8.46
2019-03-16T19:37:44.212Z,8.54
2019-03-16T19:40:14.525Z,8.55
2019-03-16T19:42:43.015Z,8.62
2019-03-16T19:45:12.441Z,8.64
2019-03-16T19:47:40.940Z,8.65
2019-03-16T19:50:14.386Z,8.68
2019-03-16T19:52:43.130Z,8.80
2019-03-16T19:55:12.810Z,8.80
2019-03-16T19:57:41.658Z,8.85
2019-03-16T20:00:13.252Z,8.88
2019-03-16T20:02:48.551Z,8.87
2019-03-16T20:05:13.475Z,8.89
2019-03-16T20:07:41.948Z,8.94
2019-03-16T20:10:18.640Z,8.90
2019-03-16T20:12:47.097Z,8.92
2019-03-16T20:15:16.558Z,8.99
2019-03-16T20:17:45.183Z,9.00
2019-03-16T20:20:15.006Z,9.00
2019-03-16T20:22:43.457Z,9.05
2019-03-16T20:25:12.279Z,9.07
2019-03-16T20:27:40.742Z,9.07
2019-03-16T20:30:25.791Z,9.09
2019-03-16T20:32:50.361Z,9.21
2019-03-16T20:35:17.570Z,9.13
2019-03-16T20:37:46.242Z,9.11
2019-03-16T20:40:16.778Z,9.14
2019-03-16T20:42:45.363Z,9.13
2019-03-16T20:45:14.207Z,9.12
2019-03-16T20:47:42.899Z,9.10
2019-03-16T20:50:16.129Z,9.11
2019-03-16T20:52:44.605Z,9.09
2019-03-16T20:55:13.302Z,9.10
2019-03-16T20:57:41.784Z,9.10
2019-03-16T21:00:12.493Z,9.09
2019-03-16T21:02:40.972Z,9.13
2019-03-16T21:05:10.733Z,9.13
2019-03-16T21:07:39.279Z,9.12
2019-03-16T21:10:09.793Z,9.14
2019-03-16T21:12:38.287Z,9.18
2019-03-16T21:15:11.847Z,9.18
2019-03-16T21:17:40.314Z,9.20
2019-03-16T21:20:11.878Z,9.22
2019-03-16T21:22:40.378Z,9.21
2019-03-16T21:25:11.389Z,9.22
2019-03-16T21:27:39.904Z,9.22
2019-03-16T21:30:20.221Z,9.26
2019-03-16T21:32:48.702Z,9.25
2019-03-16T21:35:17.326Z,9.24
2019-03-16T21:37:45.828Z,9.23
2019-03-16T21:40:18.445Z,9.25
2019-03-16T21:42:46.928Z,9.25
2019-03-16T21:45:15.558Z,9.30
2019-03-16T21:47:44.075Z,9.27
2019-03-16T21:50:16.157Z,9.26
2019-03-16T21:52:45.189Z,9.29
2019-03-16T21:55:14.866Z,9.31
2019-03-16T21:57:43.912Z,9.31
2019-03-16T22:00:14.618Z,9.31
2019-03-16T22:02:43.230Z,9.31
2019-03-16T22:05:12.360Z,9.33
2019-03-16T22:07:40.920Z,9.30
2019-03-16T22:10:11.330Z,9.31
2019-03-16T22:12:39.896Z,9.31
2019-03-16T22:15:11.435Z,9.34
2019-03-16T22:17:39.857Z,9.30
2019-03-16T22:20:11.713Z,9.31
2019-03-16T22:22:40.233Z,9.30
2019-03-16T22:25:10.039Z,9.32
2019-03-16T22:27:38.533Z,9.31
2019-03-16T22:30:10.051Z,9.33
2019-03-16T22:32:38.536Z,9.32
2019-03-16T22:35:09.125Z,9.29
2019-03-16T22:37:38.003Z,9.32
2019-03-16T22:40:09.399Z,9.31
2019-03-16T22:42:37.924Z,9.34
2019-03-16T22:45:11.477Z,9.28
2019-03-16T22:47:40.001Z,9.31
2019-03-16T22:50:13.978Z,9.29
2019-03-16T22:52:42.476Z,9.32
2019-03-16T22:55:11.127Z,9.28
2019-03-16T22:57:39.621Z,9.31
2019-03-16T23:00:13.669Z,9.31
2019-03-16T23:02:42.508Z,9.29
2019-03-16T23:05:11.699Z,9.29
2019-03-16T23:07:40.186Z,9.26
2019-03-16T23:10:10.664Z,9.30
2019-03-16T23:12:39.157Z,9.28
2019-03-16T23:15:11.623Z,9.28
2019-03-16T23:17:40.117Z,9.27
2019-03-16T23:20:09.719Z,9.26
2019-03-16T23:22:38.222Z,9.27
2019-03-16T23:25:10.653Z,9.25
2019-03-16T23:27:39.126Z,9.26
2019-03-16T23:30:09.419Z,9.24
2019-03-16T23:32:38.614Z,9.25
2019-03-16T23:35:08.619Z,9.22
2019-03-16T23:37:37.093Z,9.23
2019-03-16T23:40:08.176Z,9.20
2019-03-16T23:42:36.693Z,9.20
2019-03-16T23:45:07.883Z,9.18
2019-03-16T23:47:36.368Z,9.22
2019-03-16T23:50:07.582Z,9.20
2019-03-16T23:52:37.157Z,9.18
2019-03-16T23:55:07.698Z,9.18
2019-03-16T23:57:36.199Z,9.18
